createdAt,value
2019-02-09T00:00:32.726Z,2.20
2019-02-09T00:03:01.039Z,1.53
2019-02-09T00:05:29.383Z,1.80
2019-02-09T00:07:57.703Z,1.90
2019-02-09T00:10:26.011Z,1.63
2019-02-09T00:12:54.295Z,2.20
2019-02-09T00:15:22.577Z,1.73
2019-02-09T00:17:50.877Z,1.90
2019-02-09T00:20:19.594Z,1.63
2019-02-09T00:22:47.871Z,1.90
2019-02-09T00:25:21.428Z,1.70
2019-02-09T00:27:49.726Z,1.70
2019-02-09T00:30:22.263Z,1.97
2019-02-09T00:32:50.568Z,1.40
2019-02-09T00:35:20.235Z,2.03
2019-02-09T00:37:48.610Z,1.80
2019-02-09T00:40:22.080Z,1.67
2019-02-09T00:42:50.438Z,1.80
2019-02-09T00:45:20.330Z,1.77
2019-02-09T00:47:48.635Z,1.50
2019-02-09T00:50:18.255Z,1.80
2019-02-09T00:52:46.530Z,1.60
2019-02-09T00:55:25.950Z,1.53
2019-02-09T00:57:54.327Z,1.83
2019-02-09T01:00:31.353Z,1.43
2019-02-09T01:02:59.907Z,1.60
2019-02-09T01:05:45.410Z,1.80
2019-02-09T01:08:13.859Z,1.50
2019-02-09T01:10:42.147Z,1.70
2019-02-09T01:13:10.446Z,1.77
2019-02-09T01:15:38.723Z,1.90
2019-02-09T01:18:07.027Z,1.60
2019-02-09T01:20:35.352Z,2.10
2019-02-09T01:23:04.983Z,1.80
2019-02-09T01:25:33.279Z,1.67
2019-02-09T01:28:01.564Z,1.97
2019-02-09T01:30:29.915Z,1.60
2019-02-09T01:32:58.215Z,1.60
2019-02-09T01:35:26.774Z,1.60
2019-02-09T01:37:55.143Z,1.57
2019-02-09T01:40:28.111Z,1.60
2019-02-09T01:42:56.479Z,2.10
2019-02-09T01:45:32.025Z,1.50
2019-02-09T01:48:00.343Z,1.83
2019-02-09T01:50:30.553Z,1.77
2019-02-09T01:52:58.928Z,2.00
2019-02-09T01:55:28.753Z,1.80
2019-02-09T01:57:57.870Z,1.70
2019-02-09T02:00:32.186Z,1.67
2019-02-09T02:03:00.488Z,1.33
2019-02-09T02:05:28.946Z,1.90
2019-02-09T02:07:57.298Z,2.47
2019-02-09T02:10:34.062Z,2.17
2019-02-09T02:13:02.645Z,1.93
2019-02-09T02:15:31.379Z,2.10
2019-02-09T02:17:59.945Z,1.73
2019-02-09T02:20:32.701Z,2.27
2019-02-09T02:23:00.984Z,1.80
2019-02-09T02:25:29.263Z,2.07
2019-02-09T02:27:57.558Z,2.17
2019-02-09T02:30:34.180Z,2.23
2019-02-09T02:33:02.608Z,2.77
2019-02-09T02:35:30.944Z,2.60
2019-02-09T02:37:59.295Z,2.13
2019-02-09T02:40:27.594Z,2.23
2019-02-09T02:42:55.954Z,2.40
2019-02-09T02:45:25.267Z,2.80
2019-02-09T02:47:53.922Z,2.67
2019-02-09T02:50:23.445Z,2.63
2019-02-09T02:52:51.790Z,2.73
2019-02-09T02:55:25.554Z,1.93
2019-02-09T02:57:53.919Z,2.30
2019-02-09T03:00:31.617Z,2.20
2019-02-09T03:02:54.987Z,2.47
2019-02-09T03:05:24.313Z,2.30
2019-02-09T03:07:53.052Z,2.60
2019-02-09T03:10:21.334Z,2.67
2019-02-09T03:12:49.629Z,2.60
2019-02-09T03:15:26.975Z,2.20
2019-02-09T03:17:55.296Z,2.30
2019-02-09T03:20:23.741Z,2.30
2019-02-09T03:22:52.096Z,2.53
2019-02-09T03:25:22.854Z,3.27
2019-02-09T03:27:51.233Z,2.70
2019-02-09T03:30:21.423Z,2.50
2019-02-09T03:32:49.751Z,2.57
2019-02-09T03:35:18.810Z,3.10
2019-02-09T03:37:47.115Z,2.30
2019-02-09T03:40:17.975Z,3.10
2019-02-09T03:42:46.527Z,2.57
2019-02-09T03:45:20.144Z,2.30
2019-02-09T03:47:49.004Z,2.70
2019-02-09T03:50:19.898Z,2.67
2019-02-09T03:52:48.187Z,2.70
2019-02-09T03:55:16.486Z,3.10
2019-02-09T03:57:44.851Z,2.93
2019-02-09T04:00:21.827Z,2.60
2019-02-09T04:02:50.190Z,2.87
2019-02-09T04:05:18.544Z,2.77
2019-02-09T04:07:46.831Z,2.57
2019-02-09T04:10:17.466Z,3.00
2019-02-09T04:12:45.766Z,2.67
2019-02-09T04:15:17.502Z,2.90
2019-02-09T04:17:45.809Z,2.80
2019-02-09T04:20:15.748Z,3.00
2019-02-09T04:22:44.206Z,3.00
2019-02-09T04:25:14.651Z,2.97
2019-02-09T04:27:43.080Z,2.80
2019-02-09T04:30:25.442Z,3.13
2019-02-09T04:32:53.965Z,3.40
2019-02-09T04:35:22.242Z,2.90
2019-02-09T04:37:50.551Z,2.97
2019-02-09T04:40:27.054Z,3.13
2019-02-09T04:42:55.374Z,2.73
2019-02-09T04:45:23.740Z,2.80
2019-02-09T04:47:52.099Z,3.47
2019-02-09T04:50:20.448Z,2.90
2019-02-09T04:52:48.805Z,2.40
2019-02-09T04:55:19.652Z,2.90
2019-02-09T04:57:47.948Z,2.80
2019-02-09T05:00:21.299Z,2.67
2019-02-09T05:02:49.951Z,2.90
2019-02-09T05:05:18.251Z,3.27
2019-02-09T05:07:46.547Z,3.20
2019-02-09T05:10:19.625Z,2.57
2019-02-09T05:12:47.910Z,2.50
2019-02-09T05:15:18.494Z,2.90
2019-02-09T05:17:46.795Z,3.17
2019-02-09T05:20:17.122Z,2.83
2019-02-09T05:22:45.509Z,2.97
2019-02-09T05:25:15.090Z,2.63
2019-02-09T05:27:43.791Z,2.60
2019-02-09T05:30:26.515Z,2.87
2019-02-09T05:32:54.869Z,3.03
2019-02-09T05:35:23.315Z,3.00
2019-02-09T05:37:51.624Z,2.77
2019-02-09T05:40:22.315Z,2.70
2019-02-09T05:42:50.665Z,3.10
2019-02-09T05:45:21.597Z,3.10
2019-02-09T05:47:50.015Z,2.50
2019-02-09T05:50:19.375Z,4.00
2019-02-09T05:52:47.794Z,3.30
2019-02-09T05:55:17.284Z,3.27
2019-02-09T05:57:45.594Z,3.40
2019-02-09T06:00:21.281Z,3.23
2019-02-09T06:02:49.578Z,3.23
2019-02-09T06:05:17.883Z,2.93
2019-02-09T06:07:46.239Z,3.33
2019-02-09T06:10:19.351Z,3.80
2019-02-09T06:12:47.720Z,3.50
2019-02-09T06:15:21.348Z,3.17
2019-02-09T06:17:49.644Z,2.90
2019-02-09T06:20:29.251Z,3.30
2019-02-09T06:22:57.647Z,3.73
2019-02-09T06:25:26.028Z,3.50
2019-02-09T06:27:54.394Z,3.23
2019-02-09T06:30:24.790Z,3.40
2019-02-09T06:32:53.107Z,2.80
2019-02-09T06:35:21.527Z,3.53
2019-02-09T06:37:49.826Z,3.37
2019-02-09T06:40:19.850Z,3.20
2019-02-09T06:42:48.214Z,3.53
2019-02-09T06:45:26.913Z,3.00
2019-02-09T06:48:16.601Z,3.37
2019-02-09T06:50:44.987Z,3.13
2019-02-09T06:53:13.374Z,2.73
2019-02-09T06:55:41.726Z,3.43
2019-02-09T06:58:10.012Z,3.33
2019-02-09T07:00:38.434Z,3.20
2019-02-09T07:03:06.722Z,3.00
2019-02-09T07:05:35.003Z,3.20
2019-02-09T07:08:03.377Z,3.60
2019-02-09T07:10:31.738Z,3.20
2019-02-09T07:13:00.030Z,3.63
2019-02-09T07:15:30.463Z,3.17
2019-02-09T07:17:58.814Z,2.57
2019-02-09T07:20:27.112Z,3.40
2019-02-09T07:22:55.474Z,3.27
2019-02-09T07:25:24.526Z,3.60
2019-02-09T07:27:52.812Z,3.10
2019-02-09T07:30:28.801Z,3.17
2019-02-09T07:32:57.547Z,3.57
2019-02-09T07:35:25.822Z,3.50
2019-02-09T07:37:54.151Z,3.03
2019-02-09T07:40:24.628Z,3.50
2019-02-09T07:42:52.990Z,3.33
2019-02-09T07:45:26.181Z,3.27
2019-02-09T07:47:54.504Z,3.37
2019-02-09T07:50:24.962Z,3.23
2019-02-09T07:52:53.398Z,2.87
2019-02-09T07:55:21.827Z,3.00
2019-02-09T07:57:50.126Z,3.23
2019-02-09T08:00:20.829Z,2.57
2019-02-09T08:02:49.180Z,3.40
2019-02-09T08:05:17.472Z,2.60
2019-02-09T08:07:45.762Z,2.77
2019-02-09T08:10:28.946Z,2.70
2019-02-09T08:12:57.471Z,3.07
2019-02-09T08:15:27.930Z,2.77
2019-02-09T08:17:56.308Z,3.20
2019-02-09T08:20:27.382Z,2.67
2019-02-09T08:22:57.302Z,2.73
2019-02-09T08:25:27.817Z,3.27
2019-02-09T08:27:56.235Z,3.13
2019-02-09T08:30:27.503Z,2.87
2019-02-09T08:32:55.851Z,3.47
2019-02-09T08:35:24.126Z,3.50
2019-02-09T08:37:52.454Z,2.80
2019-02-09T08:40:21.008Z,3.10
2019-02-09T08:42:49.502Z,2.90
2019-02-09T08:45:19.356Z,2.60
2019-02-09T08:47:47.659Z,2.90
2019-02-09T08:50:27.883Z,2.57
2019-02-09T08:52:56.218Z,3.40
2019-02-09T08:55:24.576Z,2.90
2019-02-09T08:57:53.499Z,2.73
2019-02-09T09:00:26.999Z,2.67
2019-02-09T09:02:55.310Z,3.33
2019-02-09T09:05:23.712Z,3.00
2019-02-09T09:07:52.085Z,3.10
2019-02-09T09:10:25.698Z,2.57
2019-02-09T09:12:54.065Z,2.43
2019-02-09T09:15:27.943Z,2.70
2019-02-09T09:17:56.232Z,2.97
2019-02-09T09:20:30.391Z,2.13
2019-02-09T09:22:58.886Z,2.97
2019-02-09T09:25:27.162Z,2.97
2019-02-09T09:27:55.492Z,2.80
2019-02-09T09:30:29.174Z,3.07
2019-02-09T09:32:57.543Z,2.90
2019-02-09T09:35:25.838Z,3.17
2019-02-09T09:37:55.137Z,2.80
2019-02-09T09:40:28.577Z,3.20
2019-02-09T09:42:56.858Z,3.40
2019-02-09T09:45:30.356Z,3.50
2019-02-09T09:47:58.742Z,2.93
2019-02-09T09:50:28.349Z,3.27
2019-02-09T09:52:56.790Z,3.00
2019-02-09T09:55:25.143Z,3.30
2019-02-09T09:57:53.444Z,3.10
2019-02-09T10:00:28.858Z,2.53
2019-02-09T10:02:57.450Z,2.93
2019-02-09T10:05:25.814Z,3.03
2019-02-09T10:07:54.205Z,2.97
2019-02-09T10:10:22.731Z,3.60
2019-02-09T10:12:51.035Z,3.00
2019-02-09T10:15:27.519Z,2.50
2019-02-09T10:17:55.882Z,2.97
2019-02-09T10:20:25.503Z,3.03
2019-02-09T10:22:53.831Z,2.50
2019-02-09T10:25:22.362Z,3.23
2019-02-09T10:27:52.993Z,2.53
2019-02-09T10:30:32.198Z,2.70
2019-02-09T10:33:00.474Z,3.30
2019-02-09T10:35:28.894Z,2.83
2019-02-09T10:37:57.259Z,3.17
2019-02-09T10:40:31.050Z,2.50
2019-02-09T10:42:59.426Z,3.27
2019-02-09T10:45:29.550Z,3.00
2019-02-09T10:47:58.302Z,3.23
2019-02-09T10:50:29.194Z,3.00
2019-02-09T10:52:57.563Z,3.17
2019-02-09T10:55:26.110Z,2.60
2019-02-09T10:57:54.532Z,3.33
2019-02-09T11:00:32.009Z,3.00
2019-02-09T11:03:00.330Z,2.83
2019-02-09T11:05:28.682Z,3.00
2019-02-09T11:07:57.032Z,2.80
2019-02-09T11:10:25.815Z,3.00
2019-02-09T11:12:54.094Z,3.07
2019-02-09T11:15:23.150Z,2.60
2019-02-09T11:17:51.436Z,2.87
2019-02-09T11:20:22.082Z,3.57
2019-02-09T11:22:50.458Z,3.27
2019-02-09T11:25:20.186Z,3.70
2019-02-09T11:27:48.501Z,3.60
2019-02-09T11:30:20.007Z,2.77
2019-02-09T11:32:48.624Z,2.63
2019-02-09T11:35:17.158Z,3.03
2019-02-09T11:37:45.458Z,3.30
2019-02-09T11:40:25.948Z,3.20
2019-02-09T11:42:54.339Z,2.90
2019-02-09T11:45:25.339Z,2.80
2019-02-09T11:47:53.630Z,3.13
2019-02-09T11:50:21.930Z,2.80
2019-02-09T11:52:50.244Z,2.90
2019-02-09T11:55:19.535Z,3.13
2019-02-09T11:57:49.423Z,2.97
2019-02-09T12:00:35.664Z,2.67
2019-02-09T12:03:13.882Z,3.20
2019-02-09T12:05:34.789Z,2.90
2019-02-09T12:08:03.078Z,3.40
2019-02-09T12:10:31.672Z,3.47
2019-02-09T12:13:00.021Z,2.90
2019-02-09T12:15:31.067Z,3.00
2019-02-09T12:17:59.434Z,3.40
2019-02-09T12:20:27.845Z,3.50
2019-02-09T12:22:56.473Z,3.53
2019-02-09T12:25:27.376Z,3.33
2019-02-09T12:27:55.671Z,3.40
2019-02-09T12:30:26.623Z,3.50
2019-02-09T12:32:55.059Z,3.13
2019-02-09T12:35:23.432Z,3.40
2019-02-09T12:37:51.800Z,3.50
2019-02-09T12:40:22.817Z,3.50
2019-02-09T12:42:51.118Z,3.53
2019-02-09T12:45:21.639Z,3.37
2019-02-09T12:47:50.265Z,3.53
2019-02-09T12:50:20.666Z,2.80
2019-02-09T12:52:49.036Z,3.67
2019-02-09T12:55:17.882Z,2.93
2019-02-09T12:57:46.343Z,3.23
2019-02-09T13:00:27.018Z,3.20
2019-02-09T13:02:56.826Z,2.97
2019-02-09T13:05:25.213Z,3.70
2019-02-09T13:07:53.555Z,3.60
2019-02-09T13:10:21.912Z,3.53
2019-02-09T13:12:50.269Z,2.77
2019-02-09T13:15:27.145Z,3.23
2019-02-09T13:17:55.502Z,3.20
2019-02-09T13:20:28.352Z,3.00
2019-02-09T13:22:56.669Z,3.40
2019-02-09T13:25:25.395Z,2.97
2019-02-09T13:27:53.810Z,3.63
2019-02-09T13:30:28.122Z,3.07
2019-02-09T13:32:56.427Z,3.77
2019-02-09T13:35:24.735Z,3.00
2019-02-09T13:37:53.126Z,3.10
2019-02-09T13:40:23.868Z,3.30
2019-02-09T13:42:52.148Z,2.93
2019-02-09T13:45:31.362Z,3.77
2019-02-09T13:47:59.719Z,3.10
2019-02-09T13:50:29.431Z,2.73
2019-02-09T13:52:57.723Z,3.57
2019-02-09T13:55:26.096Z,2.70
2019-02-09T13:57:54.377Z,3.20
2019-02-09T14:00:24.422Z,2.93
2019-02-09T14:02:53.046Z,2.50
2019-02-09T14:05:21.328Z,3.13
2019-02-09T14:07:49.657Z,3.13
2019-02-09T14:10:22.614Z,2.73
2019-02-09T14:12:51.322Z,3.17
2019-02-09T14:15:30.706Z,2.87
2019-02-09T14:18:00.301Z,3.10
2019-02-09T14:20:28.814Z,3.40
2019-02-09T14:22:57.196Z,2.83
2019-02-09T14:25:25.503Z,3.53
2019-02-09T14:27:55.468Z,2.63
2019-02-09T14:30:29.437Z,3.37
2019-02-09T14:32:57.892Z,3.47
2019-02-09T14:35:26.344Z,2.70
2019-02-09T14:37:54.690Z,2.83
2019-02-09T14:40:25.891Z,2.97
2019-02-09T14:42:54.172Z,2.60
2019-02-09T14:45:36.926Z,3.20
2019-02-09T14:48:05.241Z,3.53
2019-02-09T14:50:33.536Z,3.07
2019-02-09T14:53:01.877Z,3.40
2019-02-09T14:55:35.616Z,3.33
2019-02-09T14:58:04.099Z,3.07
2019-02-09T15:00:50.223Z,3.30
2019-02-09T15:03:26.159Z,3.00
2019-02-09T15:05:48.706Z,3.07
2019-02-09T15:08:17.032Z,3.23
2019-02-09T15:10:45.324Z,3.53
2019-02-09T15:13:14.274Z,3.03
2019-02-09T15:15:51.846Z,3.10
2019-02-09T15:18:20.210Z,2.87
2019-02-09T15:21:00.534Z,2.73
2019-02-09T15:23:28.911Z,3.10
2019-02-09T15:25:57.208Z,3.20
2019-02-09T15:28:25.550Z,3.07
2019-02-09T15:30:53.855Z,2.83
2019-02-09T15:33:22.240Z,3.00
2019-02-09T15:35:50.583Z,2.83
2019-02-09T15:38:18.910Z,3.07
2019-02-09T15:40:47.358Z,2.77
2019-02-09T15:43:15.752Z,3.17
2019-02-09T15:45:44.066Z,3.07
2019-02-09T15:48:12.347Z,3.00
2019-02-09T15:50:40.623Z,2.97
2019-02-09T15:53:08.950Z,2.53
2019-02-09T15:55:37.315Z,2.87
2019-02-09T15:58:05.598Z,2.90
2019-02-09T16:00:33.910Z,2.60
2019-02-09T16:03:02.398Z,2.50
2019-02-09T16:05:30.758Z,2.50
2019-02-09T16:07:59.073Z,2.60
2019-02-09T16:10:27.356Z,2.63
2019-02-09T16:12:55.896Z,2.70
2019-02-09T16:15:26.162Z,2.50
2019-02-09T16:17:54.602Z,2.23
2019-02-09T16:20:34.639Z,2.73
2019-02-09T16:23:02.929Z,2.57
2019-02-09T16:25:31.216Z,2.90
2019-02-09T16:27:59.587Z,2.43
2019-02-09T16:30:29.152Z,2.70
2019-02-09T16:32:57.521Z,2.40
2019-02-09T16:35:27.438Z,2.57
2019-02-09T16:37:55.731Z,2.40
2019-02-09T16:40:26.916Z,2.37
2019-02-09T16:42:55.210Z,2.20
2019-02-09T16:45:25.923Z,2.30
2019-02-09T16:47:54.230Z,2.17
2019-02-09T16:50:22.903Z,2.17
2019-02-09T16:52:51.265Z,1.77
2019-02-09T16:55:21.091Z,2.27
2019-02-09T16:57:50.198Z,2.53
2019-02-09T17:00:33.449Z,2.23
2019-02-09T17:03:01.760Z,2.10
2019-02-09T17:05:30.109Z,2.30
2019-02-09T17:07:58.518Z,2.47
2019-02-09T17:10:26.847Z,2.00
2019-02-09T17:12:55.130Z,2.47
2019-02-09T17:15:25.275Z,2.43
2019-02-09T17:17:53.711Z,2.10
2019-02-09T17:20:22.150Z,2.30
2019-02-09T17:22:51.771Z,2.53
2019-02-09T17:25:22.887Z,1.90
2019-02-09T17:27:51.206Z,2.53
2019-02-09T17:30:33.420Z,2.67
2019-02-09T17:33:01.921Z,2.53
2019-02-09T17:35:30.246Z,2.47
2019-02-09T17:37:58.544Z,2.30
2019-02-09T17:40:29.343Z,2.30
2019-02-09T17:42:57.643Z,2.60
2019-02-09T17:45:41.148Z,2.50
2019-02-09T17:48:09.584Z,1.90
2019-02-09T17:50:38.009Z,2.37
2019-02-09T17:53:06.351Z,2.83
2019-02-09T17:55:34.756Z,2.57
2019-02-09T17:58:03.122Z,2.60
2019-02-09T18:00:36.234Z,2.37
2019-02-09T18:03:04.532Z,2.23
2019-02-09T18:05:34.662Z,3.00
2019-02-09T18:08:02.938Z,2.50
2019-02-09T18:10:31.248Z,2.73
2019-02-09T18:12:59.627Z,2.73
2019-02-09T18:15:28.008Z,2.70
2019-02-09T18:17:56.393Z,2.40
2019-02-09T18:20:24.761Z,2.63
2019-02-09T18:22:53.063Z,2.60
2019-02-09T18:25:24.152Z,2.63
2019-02-09T18:27:52.891Z,2.03
2019-02-09T18:30:28.759Z,2.40
2019-02-09T18:32:57.106Z,2.30
2019-02-09T18:35:25.423Z,2.30
2019-02-09T18:37:53.818Z,2.30
2019-02-09T18:40:26.311Z,2.60
2019-02-09T18:42:54.674Z,2.60
2019-02-09T18:45:34.870Z,2.37
2019-02-09T18:48:03.154Z,2.33
2019-02-09T18:50:32.092Z,2.40
2019-02-09T18:53:01.688Z,2.43
2019-02-09T18:55:30.689Z,2.43
2019-02-09T18:57:59.067Z,2.43
2019-02-09T19:00:35.498Z,2.20
2019-02-09T19:03:04.110Z,2.43
2019-02-09T19:05:32.460Z,2.60
2019-02-09T19:08:00.862Z,2.67
2019-02-09T19:10:29.590Z,2.77
2019-02-09T19:12:57.958Z,2.70
2019-02-09T19:15:29.049Z,2.70
2019-02-09T19:17:58.637Z,2.77
2019-02-09T19:20:32.485Z,2.60
2019-02-09T19:23:01.120Z,2.87
2019-02-09T19:25:29.470Z,2.73
2019-02-09T19:27:57.843Z,2.53
2019-02-09T19:30:27.062Z,2.60
2019-02-09T19:32:55.790Z,2.50
2019-02-09T19:35:24.211Z,2.47
2019-02-09T19:37:53.944Z,2.77
2019-02-09T19:40:26.998Z,2.80
2019-02-09T19:42:55.366Z,2.67
2019-02-09T19:45:29.222Z,2.40
2019-02-09T19:47:57.494Z,1.90
2019-02-09T19:50:25.800Z,2.93
2019-02-09T19:52:54.115Z,2.40
2019-02-09T19:55:24.811Z,2.57
2019-02-09T19:57:53.277Z,2.37
2019-02-09T20:00:30.514Z,2.40
2019-02-09T20:02:58.887Z,2.07
2019-02-09T20:05:27.162Z,2.17
2019-02-09T20:07:55.646Z,2.17
2019-02-09T20:10:26.703Z,3.07
2019-02-09T20:12:55.007Z,2.43
2019-02-09T20:15:23.374Z,2.20
2019-02-09T20:17:51.684Z,2.27
2019-02-09T20:20:20.203Z,2.10
2019-02-09T20:22:48.510Z,2.33
2019-02-09T20:25:19.466Z,2.40
2019-02-09T20:27:47.758Z,2.27
2019-02-09T20:30:21.317Z,2.60
2019-02-09T20:32:49.683Z,2.20
2019-02-09T20:35:19.306Z,2.10
2019-02-09T20:37:47.615Z,2.20
2019-02-09T20:40:25.222Z,2.47
2019-02-09T20:43:01.407Z,2.10
2019-02-09T20:45:23.540Z,2.07
2019-02-09T20:47:51.899Z,2.20
2019-02-09T20:50:20.665Z,2.07
2019-02-09T20:52:49.019Z,2.07
2019-02-09T20:55:17.585Z,1.73
2019-02-09T20:57:45.905Z,2.30
2019-02-09T21:00:29.145Z,2.17
2019-02-09T21:02:57.619Z,2.20
2019-02-09T21:05:26.246Z,2.07
2019-02-09T21:07:54.853Z,2.07
2019-02-09T21:10:26.785Z,1.83
2019-02-09T21:12:55.094Z,2.20
2019-02-09T21:15:25.347Z,2.30
2019-02-09T21:17:53.799Z,1.80
2019-02-09T21:20:22.078Z,2.10
2019-02-09T21:22:50.377Z,2.10
2019-02-09T21:25:21.675Z,2.20
2019-02-09T21:27:50.018Z,2.17
2019-02-09T21:30:20.191Z,2.27
2019-02-09T21:32:48.567Z,2.23
2019-02-09T21:35:18.129Z,1.83
2019-02-09T21:37:46.649Z,1.90
2019-02-09T21:40:29.039Z,2.20
2019-02-09T21:42:57.414Z,1.87
2019-02-09T21:45:25.979Z,2.13
2019-02-09T21:47:54.271Z,2.17
2019-02-09T21:50:25.369Z,2.47
2019-02-09T21:52:54.378Z,2.20
2019-02-09T21:55:23.005Z,2.10
2019-02-09T21:57:51.422Z,2.27
2019-02-09T22:00:36.999Z,1.90
2019-02-09T22:03:07.009Z,2.70
2019-02-09T22:05:35.451Z,2.53
2019-02-09T22:08:04.386Z,2.27
2019-02-09T22:10:34.056Z,2.43
2019-02-09T22:13:02.806Z,2.67
2019-02-09T22:15:38.642Z,2.30
2019-02-09T22:18:05.264Z,2.47
2019-02-09T22:20:33.611Z,2.63
2019-02-09T22:23:02.062Z,2.23
2019-02-09T22:25:30.491Z,2.37
2019-02-09T22:27:58.786Z,2.70
2019-02-09T22:30:32.272Z,2.23
2019-02-09T22:33:01.078Z,2.17
2019-02-09T22:35:29.711Z,2.53
2019-02-09T22:37:58.044Z,2.23
2019-02-09T22:40:37.919Z,2.40
2019-02-09T22:43:06.976Z,2.53
2019-02-09T22:45:35.793Z,1.97
2019-02-09T22:48:05.706Z,2.10
2019-02-09T22:50:39.671Z,2.20
2019-02-09T22:53:08.027Z,2.30
2019-02-09T22:55:36.311Z,2.33
2019-02-09T22:58:05.344Z,2.47
2019-02-09T23:00:56.255Z,2.57
2019-02-09T23:03:46.204Z,2.40
2019-02-09T23:06:20.534Z,2.10
2019-02-09T23:08:54.408Z,2.20
2019-02-09T23:11:22.950Z,1.87
2019-02-09T23:13:51.256Z,2.20
2019-02-09T23:16:19.551Z,2.03
2019-02-09T23:18:47.855Z,2.23
2019-02-09T23:21:16.163Z,2.30
2019-02-09T23:23:44.576Z,2.10
2019-02-09T23:26:13.001Z,1.90
2019-02-09T23:28:41.378Z,2.03
2019-02-09T23:31:09.746Z,2.17
2019-02-09T23:33:38.075Z,2.37
2019-02-09T23:36:06.442Z,1.83
2019-02-09T23:38:34.723Z,2.30
2019-02-09T23:41:03.006Z,2.03
2019-02-09T23:43:31.322Z,1.70
2019-02-09T23:45:59.703Z,1.87
2019-02-09T23:48:28.051Z,2.00
2019-02-09T23:50:56.397Z,2.03
2019-02-09T23:53:24.766Z,1.70
2019-02-09T23:55:53.109Z,1.70
2019-02-09T23:58:21.418Z,2.13
